Time;durP1;ratioP1;P1;durP2;ratioP2;P2;SDS_P1;SDS_P2;PMS_P1;PMS_P2;Temp;Humidity;BMP_temperature;BMP_pressure;BME280_temperature;BME280_humidity;BME280_pressure;Samples;Min_cycle;Max_cycle;Signal;HPM_P1;HPM_P2
2023/11/13 00:00:07;;;;;;;12.00;9.30;;;15.70;60.30;;;;;;4954710;28;20467;-77
2023/11/13 00:02:35;;;;;;;13.83;9.50;;;15.70;60.60;;;;;;4964118;28;20553;-77
2023/11/13 00:05:04;;;;;;;13.50;9.23;;;15.70;60.60;;;;;;4960103;28;20454;-77
2023/11/13 00:07:33;;;;;;;13.50;9.47;;;15.70;60.50;;;;;;4967095;28;20459;-76
2023/11/13 00:10:04;;;;;;;13.17;9.50;;;15.60;60.50;;;;;;4972142;28;20501;-77
2023/11/13 00:12:33;;;;;;;12.00;9.40;;;15.60;60.50;;;;;;4965512;28;20435;-77
2023/11/13 00:15:00;;;;;;;15.00;9.37;;;15.60;60.50;;;;;;4991168;28;20445;-77
2023/11/13 00:17:29;;;;;;;13.27;10.00;;;15.60;60.50;;;;;;4975396;28;20530;-76
2023/11/13 00:19:58;;;;;;;13.07;8.80;;;15.60;60.30;;;;;;4979336;28;20506;-75
2023/11/13 00:22:26;;;;;;;11.37;8.90;;;15.60;60.20;;;;;;4982721;28;20454;-74
2023/11/13 00:24:55;;;;;;;13.27;8.97;;;15.60;60.50;;;;;;4974950;28;20592;-75
2023/11/13 00:27:23;;;;;;;16.27;9.63;;;15.60;60.50;;;;;;4974677;28;20457;-75
2023/11/13 00:29:52;;;;;;;12.90;9.50;;;15.60;60.70;;;;;;4973879;28;20478;-76
2023/11/13 00:32:19;;;;;;;12.20;8.70;;;15.60;60.40;;;;;;4974741;28;20460;-76
2023/11/13 00:34:49;;;;;;;12.73;8.40;;;15.60;60.60;;;;;;4974628;28;20502;-75
2023/11/13 00:37:18;;;;;;;13.77;9.20;;;15.60;60.50;;;;;;4974786;28;20453;-76
2023/11/13 00:39:46;;;;;;;11.53;8.30;;;15.60;60.50;;;;;;4970210;28;20482;-75
2023/11/13 00:42:15;;;;;;;15.73;8.90;;;15.60;60.20;;;;;;4974573;28;20457;-75
2023/11/13 00:44:43;;;;;;;10.47;8.50;;;15.50;60.30;;;;;;4974740;28;20506;-75
2023/11/13 00:47:12;;;;;;;13.20;9.20;;;15.50;60.10;;;;;;4974278;28;20493;-75
2023/11/13 00:49:39;;;;;;;10.73;8.20;;;15.50;60.50;;;;;;4974401;28;20496;-76
2023/11/13 00:52:09;;;;;;;11.90;8.10;;;15.50;60.20;;;;;;4974147;28;20501;-75
2023/11/13 00:54:37;;;;;;;10.90;8.17;;;15.50;60.40;;;;;;4974279;28;20442;-75
2023/11/13 00:57:07;;;;;;;10.30;8.17;;;15.50;60.50;;;;;;4977880;28;20453;-76
2023/11/13 00:59:35;;;;;;;11.77;8.60;;;15.50;60.50;;;;;;4984844;28;20512;-76
2023/11/13 01:02:03;;;;;;;12.77;8.57;;;15.50;60.40;;;;;;4974552;28;21000;-76
2023/11/13 01:04:31;;;;;;;11.67;8.63;;;15.50;60.50;;;;;;4974855;28;20465;-76
2023/11/13 01:06:59;;;;;;;17.90;8.97;;;15.50;60.10;;;;;;4974076;28;20450;-77
2023/11/13 01:09:29;;;;;;;10.20;8.57;;;15.50;60.50;;;;;;4974225;28;20482;-76
2023/11/13 01:11:57;;;;;;;10.53;8.43;;;15.50;60.40;;;;;;4973457;28;20568;-77
2023/11/13 01:14:24;;;;;;;16.43;8.87;;;15.50;60.30;;;;;;4977430;28;20457;-76
2023/11/13 01:16:52;;;;;;;10.87;8.30;;;15.40;60.30;;;;;;4974661;28;20446;-76
2023/11/13 01:19:21;;;;;;;11.40;8.60;;;15.50;60.50;;;;;;4973778;28;21007;-76
2023/11/13 01:21:49;;;;;;;12.20;8.17;;;15.40;60.30;;;;;;4973717;28;20446;-76
2023/11/13 01:24:17;;;;;;;11.93;8.63;;;15.40;60.20;;;;;;4973444;28;20446;-76
2023/11/13 01:26:46;;;;;;;11.63;7.97;;;15.40;60.50;;;;;;4973036;28;20466;-76
2023/11/13 01:29:14;;;;;;;12.47;8.10;;;15.40;60.20;;;;;;4973563;28;20574;-76
2023/11/13 01:31:42;;;;;;;9.17;7.80;;;15.40;60.70;;;;;;4977042;28;20481;-76
2023/11/13 01:34:12;;;;;;;10.10;7.30;;;15.40;60.20;;;;;;4973721;28;20452;-76
2023/11/13 01:36:40;;;;;;;12.80;8.27;;;15.40;60.40;;;;;;4974032;28;20532;-76
2023/11/13 01:39:08;;;;;;;11.37;7.40;;;15.40;60.50;;;;;;4973837;28;20481;-76
2023/11/13 01:41:37;;;;;;;9.43;7.80;;;15.40;60.50;;;;;;4973557;28;20533;-76
2023/11/13 01:44:07;;;;;;;12.63;8.10;;;15.40;60.60;;;;;;4973561;28;20478;-76
2023/11/13 01:46:34;;;;;;;9.33;7.83;;;15.40;60.60;;;;;;4973750;28;20537;-77
2023/11/13 01:49:03;;;;;;;10.33;7.47;;;15.40;60.80;;;;;;4972232;28;20478;-76
2023/11/13 01:51:31;;;;;;;12.63;8.03;;;15.40;60.90;;;;;;4973319;28;20474;-77
2023/11/13 01:53:59;;;;;;;10.27;7.43;;;15.40;60.60;;;;;;4965185;28;20446;-77
2023/11/13 01:56:27;;;;;;;8.57;7.47;;;15.40;60.80;;;;;;4973765;28;20442;-76
2023/11/13 01:58:56;;;;;;;8.47;7.13;;;15.40;60.60;;;;;;4973240;28;20540;-76
2023/11/13 02:01:26;;;;;;;8.63;7.10;;;15.40;60.70;;;;;;4973326;28;20450;-76
2023/11/13 02:03:54;;;;;;;12.07;6.93;;;15.40;61.20;;;;;;4973259;28;20450;-76
2023/11/13 02:06:23;;;;;;;7.70;6.90;;;15.40;61.20;;;;;;4973745;28;20469;-76
2023/11/13 02:08:51;;;;;;;9.07;7.30;;;15.40;60.90;;;;;;4975020;28;20560;-76
2023/11/13 02:11:18;;;;;;;11.20;7.43;;;15.40;61.00;;;;;;4973056;28;20507;-76
2023/11/13 02:13:47;;;;;;;8.80;7.17;;;15.40;60.90;;;;;;4973388;28;20450;-76
2023/11/13 02:16:16;;;;;;;8.07;7.27;;;15.40;61.10;;;;;;4973495;28;20528;-77
2023/11/13 02:18:45;;;;;;;8.73;7.13;;;15.40;60.60;;;;;;4973318;28;20484;-77
2023/11/13 02:21:14;;;;;;;9.27;6.90;;;15.40;60.90;;;;;;4973495;28;20454;-78
2023/11/13 02:23:43;;;;;;;7.50;6.80;;;15.40;61.00;;;;;;4976737;28;20474;-77
2023/11/13 02:26:14;;;;;;;8.80;7.43;;;15.40;61.20;;;;;;4977386;28;20446;-76
2023/11/13 02:28:42;;;;;;;10.70;7.30;;;15.40;61.00;;;;;;4975403;28;21012;-77
2023/11/13 02:31:10;;;;;;;9.43;7.20;;;15.40;61.10;;;;;;4977073;28;21055;-76
2023/11/13 02:33:38;;;;;;;10.67;7.63;;;15.40;61.10;;;;;;4976845;28;20454;-76
2023/11/13 02:36:07;;;;;;;7.87;6.77;;;15.40;61.00;;;;;;4977014;28;20446;-77
2023/11/13 02:38:36;;;;;;;11.93;7.27;;;15.40;60.90;;;;;;4976865;28;20548;-76
2023/11/13 02:41:07;;;;;;;10.60;7.60;;;15.40;60.90;;;;;;4977001;28;20538;-77
2023/11/13 02:43:35;;;;;;;13.63;7.60;;;15.40;61.20;;;;;;4977361;28;20500;-77
2023/11/13 02:46:04;;;;;;;9.80;6.70;;;15.30;61.00;;;;;;4968337;28;20497;-76
2023/11/13 02:48:32;;;;;;;10.60;8.00;;;15.30;61.30;;;;;;4976646;28;20453;-76
2023/11/13 02:51:00;;;;;;;10.23;6.63;;;15.40;61.40;;;;;;4976755;28;20501;-76
2023/11/13 02:53:28;;;;;;;7.57;6.77;;;15.40;61.30;;;;;;4976950;28;20480;-76
2023/11/13 02:55:56;;;;;;;7.70;6.83;;;15.40;60.90;;;;;;4976708;28;20445;-77
2023/11/13 02:58:26;;;;;;;7.60;6.00;;;15.30;60.90;;;;;;4976719;28;20473;-76
2023/11/13 03:00:54;;;;;;;7.83;6.50;;;15.30;61.20;;;;;;4976512;28;20450;-76
2023/11/13 03:03:26;;;;;;;8.80;7.20;;;15.30;61.00;;;;;;4976773;28;20466;-77
2023/11/13 03:05:54;;;;;;;9.33;7.13;;;15.30;61.10;;;;;;4976341;28;20450;-76
2023/11/13 03:08:22;;;;;;;7.67;6.40;;;15.30;61.20;;;;;;4976627;28;20541;-77
2023/11/13 03:10:51;;;;;;;7.37;6.67;;;15.30;61.00;;;;;;4976261;28;20469;-76
2023/11/13 03:13:19;;;;;;;7.70;6.50;;;15.30;61.20;;;;;;4976738;28;20484;-76
2023/11/13 03:15:49;;;;;;;7.83;6.50;;;15.30;61.00;;;;;;4976462;28;20456;-77
2023/11/13 03:18:18;;;;;;;8.50;6.13;;;15.30;61.10;;;;;;4976018;28;20810;-77
2023/11/13 03:20:45;;;;;;;8.33;6.33;;;15.30;61.20;;;;;;4975552;28;20500;-76
2023/11/13 03:23:14;;;;;;;7.10;6.27;;;15.30;61.10;;;;;;4960553;28;20477;-76
2023/11/13 03:25:42;;;;;;;12.03;7.27;;;15.30;60.80;;;;;;4976292;28;20561;-76
2023/11/13 03:28:10;;;;;;;7.73;6.20;;;15.30;60.90;;;;;;4976096;28;20469;-76
2023/11/13 03:30:38;;;;;;;7.40;6.30;;;15.30;61.20;;;;;;4995359;23;20494;-75
2023/11/13 03:33:08;;;;;;;6.43;5.70;;;15.30;61.10;;;;;;4983738;28;20477;-76
2023/11/13 03:35:36;;;;;;;9.60;6.90;;;15.30;61.00;;;;;;4975647;28;20453;-77
2023/11/13 03:38:04;;;;;;;6.90;6.20;;;15.30;61.10;;;;;;4976419;28;20538;-78
2023/11/13 03:40:32;;;;;;;7.43;5.97;;;15.20;61.00;;;;;;4967597;28;20505;-78
2023/11/13 03:43:01;;;;;;;6.90;6.20;;;15.20;61.10;;;;;;4967212;28;20455;-77
2023/11/13 03:45:29;;;;;;;7.63;6.63;;;15.20;60.80;;;;;;4977166;28;20462;-77
2023/11/13 03:47:57;;;;;;;7.30;5.97;;;15.20;61.10;;;;;;4960581;28;20476;-77
2023/11/13 03:50:27;;;;;;;8.03;6.50;;;15.20;61.00;;;;;;4985062;28;20489;-78
2023/11/13 03:52:55;;;;;;;8.10;6.33;;;15.20;60.90;;;;;;4984059;28;20549;-77
2023/11/13 03:55:23;;;;;;;7.77;5.77;;;15.20;61.00;;;;;;4982277;28;20446;-77
2023/11/13 03:57:51;;;;;;;6.70;6.00;;;15.20;60.90;;;;;;4977652;28;20453;-77
2023/11/13 04:00:20;;;;;;;8.70;6.03;;;15.20;60.90;;;;;;4978676;28;20462;-77
2023/11/13 04:02:48;;;;;;;6.03;5.43;;;15.20;60.80;;;;;;4985306;28;20449;-76
2023/11/13 04:05:17;;;;;;;8.30;5.90;;;15.20;60.80;;;;;;4983650;28;20526;-77
2023/11/13 04:07:47;;;;;;;6.80;6.10;;;15.10;60.80;;;;;;4974549;28;20497;-77
2023/11/13 04:10:16;;;;;;;6.20;5.47;;;15.10;60.80;;;;;;4969859;28;20609;-77
2023/11/13 04:12:44;;;;;;;6.50;5.70;;;15.10;60.80;;;;;;4974134;28;20502;-77
2023/11/13 04:15:12;;;;;;;6.73;5.57;;;15.10;60.50;;;;;;4979012;28;20522;-77
2023/11/13 04:17:41;;;;;;;6.40;5.50;;;15.10;60.80;;;;;;4976227;28;20477;-77
2023/11/13 04:20:12;;;;;;;7.00;6.17;;;15.10;61.10;;;;;;4973908;28;20541;-77
2023/11/13 04:22:41;;;;;;;7.70;6.00;;;15.10;60.70;;;;;;4973320;28;20448;-77
2023/11/13 04:25:11;;;;;;;8.90;6.30;;;15.10;60.50;;;;;;4974538;28;20458;-77
2023/11/13 04:27:41;;;;;;;6.03;5.43;;;15.10;60.70;;;;;;4958309;28;20438;-77
2023/11/13 04:30:10;;;;;;;7.53;5.73;;;15.10;60.60;;;;;;4982172;28;20494;-77
2023/11/13 04:32:38;;;;;;;7.17;5.77;;;15.10;60.70;;;;;;4967295;28;20471;-77
2023/11/13 04:35:07;;;;;;;7.00;5.53;;;15.10;60.70;;;;;;4972116;28;20447;-77
2023/11/13 04:37:35;;;;;;;7.03;5.47;;;15.10;60.80;;;;;;4967305;28;20447;-77
2023/11/13 04:40:05;;;;;;;6.30;5.47;;;15.10;60.50;;;;;;4972785;28;20481;-76
2023/11/13 04:42:35;;;;;;;6.30;5.23;;;15.00;60.60;;;;;;4967410;28;20455;-77
2023/11/13 04:45:04;;;;;;;6.30;5.50;;;15.00;60.60;;;;;;4973753;28;20454;-76
2023/11/13 04:47:32;;;;;;;6.30;5.30;;;15.00;60.70;;;;;;4964164;28;20542;-77
2023/11/13 04:50:00;;;;;;;6.00;5.17;;;15.00;60.60;;;;;;4958026;28;20478;-76
2023/11/13 04:52:28;;;;;;;6.20;5.60;;;15.00;60.50;;;;;;4970820;28;20550;-77
2023/11/13 04:54:57;;;;;;;9.00;5.70;;;15.00;60.50;;;;;;4970568;28;20455;-77
2023/11/13 04:57:25;;;;;;;5.33;4.67;;;15.00;60.50;;;;;;4967252;28;20497;-77
2023/11/13 04:59:55;;;;;;;5.77;5.13;;;15.00;60.30;;;;;;4975520;28;20549;-78
2023/11/13 05:02:23;;;;;;;5.50;5.00;;;15.00;60.50;;;;;;4966059;28;20500;-77
2023/11/13 05:04:51;;;;;;;6.70;5.30;;;15.00;60.30;;;;;;4966842;28;20485;-76
2023/11/13 05:07:20;;;;;;;6.70;5.40;;;15.00;60.40;;;;;;4975447;28;20477;-76
2023/11/13 05:09:48;;;;;;;6.07;5.40;;;15.00;60.10;;;;;;4975487;28;20474;-77
2023/11/13 05:12:17;;;;;;;5.60;4.97;;;14.90;60.30;;;;;;4981838;28;20489;-77
2023/11/13 05:14:45;;;;;;;5.83;5.30;;;14.90;60.40;;;;;;4966560;28;21017;-76
2023/11/13 05:17:14;;;;;;;7.03;5.80;;;14.90;60.30;;;;;;4972796;28;20457;-77
2023/11/13 05:19:43;;;;;;;5.97;5.37;;;14.90;60.40;;;;;;4969420;28;20482;-77
2023/11/13 05:22:11;;;;;;;10.37;5.20;;;14.90;60.20;;;;;;4974548;28;20480;-77
2023/11/13 05:24:39;;;;;;;6.00;4.40;;;14.90;60.40;;;;;;4974909;28;20460;-77
2023/11/13 05:27:08;;;;;;;6.87;5.07;;;14.90;60.20;;;;;;4971104;28;20450;-77
2023/11/13 05:29:35;;;;;;;5.83;5.17;;;14.90;60.20;;;;;;4969674;28;20517;-77
2023/11/13 05:32:04;;;;;;;5.00;4.50;;;14.90;60.30;;;;;;4968877;28;20501;-77
2023/11/13 05:34:33;;;;;;;5.83;4.90;;;14.90;60.40;;;;;;4974370;28;20482;-77
2023/11/13 05:37:02;;;;;;;6.17;5.30;;;14.90;60.40;;;;;;4970467;28;20450;-77
2023/11/13 05:39:31;;;;;;;7.03;5.30;;;14.90;60.20;;;;;;4966328;28;20545;-77
2023/11/13 05:42:00;;;;;;;5.00;4.50;;;14.90;60.50;;;;;;4966596;28;20506;-76
2023/11/13 05:44:28;;;;;;;9.23;5.10;;;14.90;60.40;;;;;;4974781;28;20517;-77
2023/11/13 05:46:57;;;;;;;5.30;4.70;;;14.90;60.40;;;;;;4974478;28;20484;-78
2023/11/13 05:49:25;;;;;;;5.63;5.13;;;14.90;60.20;;;;;;4966767;28;20473;-77
2023/11/13 05:51:55;;;;;;;4.70;4.23;;;14.90;60.40;;;;;;4973955;28;20500;-77
2023/11/13 05:54:24;;;;;;;5.27;4.77;;;14.80;60.40;;;;;;4971557;28;20484;-77
2023/11/13 05:56:53;;;;;;;5.50;4.90;;;14.90;60.40;;;;;;4970138;28;20451;-77
2023/11/13 05:59:21;;;;;;;5.00;4.60;;;14.90;60.40;;;;;;4970641;28;20512;-77
2023/11/13 06:01:49;;;;;;;5.50;4.77;;;14.80;60.20;;;;;;4969667;28;20509;-77
2023/11/13 06:04:17;;;;;;;4.80;4.40;;;14.80;60.30;;;;;;4973808;28;20442;-77
2023/11/13 06:06:46;;;;;;;6.10;5.20;;;14.80;60.20;;;;;;4974185;28;20457;-77
2023/11/13 06:09:16;;;;;;;6.27;4.93;;;14.80;60.20;;;;;;4957322;28;20490;-76
2023/11/13 06:11:45;;;;;;;5.53;5.03;;;14.80;60.40;;;;;;4978137;28;21015;-77
2023/11/13 06:14:13;;;;;;;5.93;5.23;;;14.80;60.30;;;;;;4966884;28;20475;-77
2023/11/13 06:16:42;;;;;;;4.83;4.33;;;14.80;60.30;;;;;;4973616;28;20489;-77
2023/11/13 06:19:11;;;;;;;5.47;4.97;;;14.80;60.20;;;;;;4968980;28;20470;-77
2023/11/13 06:21:40;;;;;;;5.97;5.07;;;14.80;60.30;;;;;;4960163;28;21012;-77
2023/11/13 06:24:10;;;;;;;4.97;4.47;;;14.80;60.40;;;;;;4966375;28;20454;-76
2023/11/13 06:26:40;;;;;;;4.43;4.03;;;14.80;60.20;;;;;;4973363;28;20474;-76
2023/11/13 06:29:09;;;;;;;5.10;4.60;;;14.80;60.30;;;;;;4971912;28;20469;-77
2023/11/13 06:31:37;;;;;;;6.70;4.90;;;14.80;60.90;;;;;;4965766;28;20458;-75
2023/11/13 06:34:07;;;;;;;5.17;4.67;;;14.80;60.40;;;;;;4970778;28;20474;-77
2023/11/13 06:36:35;;;;;;;4.70;4.30;;;14.80;60.30;;;;;;4961723;28;20438;-76
2023/11/13 06:39:06;;;;;;;5.20;4.50;;;14.80;60.30;;;;;;4970692;28;20522;-78
2023/11/13 06:41:35;;;;;;;5.20;4.70;;;14.80;60.10;;;;;;4961502;28;20439;-77
2023/11/13 06:44:07;;;;;;;4.83;4.40;;;14.70;60.20;;;;;;4970054;28;20450;-77
2023/11/13 06:46:35;;;;;;;4.50;4.13;;;14.70;60.40;;;;;;4965337;28;20448;-77
2023/11/13 06:49:04;;;;;;;4.60;4.30;;;14.70;60.50;;;;;;4965580;28;20467;-77
2023/11/13 06:51:32;;;;;;;5.90;5.30;;;14.80;60.30;;;;;;4966173;28;20457;-77
2023/11/13 06:54:00;;;;;;;4.90;4.40;;;14.80;60.50;;;;;;4973434;28;20477;-76
2023/11/13 06:56:32;;;;;;;6.37;4.63;;;14.80;60.30;;;;;;4957235;28;20441;-76
2023/11/13 06:59:00;;;;;;;8.23;4.83;;;14.80;60.40;;;;;;4965301;28;20515;-75
2023/11/13 07:01:29;;;;;;;5.33;4.30;;;14.80;60.30;;;;;;4973671;28;20451;-75
2023/11/13 07:03:58;;;;;;;4.80;4.40;;;14.80;60.30;;;;;;4964558;28;20459;-76
2023/11/13 07:06:27;;;;;;;5.70;4.33;;;14.80;60.20;;;;;;4998447;28;20430;-77
2023/11/13 07:08:55;;;;;;;4.83;4.30;;;14.80;60.20;;;;;;4998417;28;20442;-80
2023/11/13 07:11:24;;;;;;;4.63;4.23;;;14.80;60.30;;;;;;4992756;28;20463;-77
2023/11/13 07:13:53;;;;;;;5.17;4.50;;;14.80;60.30;;;;;;4977552;28;20580;-77
2023/11/13 07:16:21;;;;;;;4.40;4.00;;;14.90;60.40;;;;;;4979373;28;20528;-78
2023/11/13 07:18:51;;;;;;;4.30;4.00;;;14.80;60.10;;;;;;4980094;28;20450;-78
2023/11/13 07:21:19;;;;;;;4.50;4.20;;;14.90;60.20;;;;;;4969760;28;20462;-78
2023/11/13 07:23:47;;;;;;;4.57;4.20;;;14.80;60.20;;;;;;4972693;28;20450;-78
2023/11/13 07:26:17;;;;;;;5.00;4.10;;;14.90;60.90;;;;;;4979652;28;20450;-78
2023/11/13 07:28:46;;;;;;;4.30;3.90;;;14.90;60.40;;;;;;4979170;28;20450;-78
2023/11/13 07:31:14;;;;;;;4.80;4.40;;;14.90;60.50;;;;;;4974071;28;20527;-78
2023/11/13 07:33:43;;;;;;;4.20;3.90;;;14.90;60.30;;;;;;4978825;28;20474;-78
2023/11/13 07:36:14;;;;;;;4.50;4.10;;;14.90;60.40;;;;;;4979928;28;20446;-79
2023/11/13 07:38:43;;;;;;;4.93;4.43;;;15.00;60.30;;;;;;4961875;28;20459;-78
2023/11/13 07:41:12;;;;;;;5.23;4.33;;;15.00;60.50;;;;;;4980091;28;20466;-79
2023/11/13 07:43:41;;;;;;;4.50;4.10;;;15.00;60.60;;;;;;4981583;28;20533;-79
2023/11/13 07:46:09;;;;;;;4.77;4.37;;;15.00;60.60;;;;;;4981060;28;20525;-78
2023/11/13 07:48:38;;;;;;;7.53;4.20;;;15.00;60.60;;;;;;4964690;28;20506;-78
2023/11/13 07:51:07;;;;;;;5.23;4.60;;;15.00;60.40;;;;;;4965229;28;20541;-78
2023/11/13 07:53:36;;;;;;;7.70;4.80;;;15.00;60.50;;;;;;4977318;28;20513;-79
2023/11/13 07:56:09;;;;;;;4.40;4.00;;;15.10;60.40;;;;;;4986365;28;20450;-77
2023/11/13 07:58:37;;;;;;;5.10;4.60;;;15.00;60.40;;;;;;4983611;28;20446;-78
2023/11/13 08:01:06;;;;;;;4.93;4.43;;;15.00;60.50;;;;;;4988080;28;20503;-79
2023/11/13 08:03:35;;;;;;;5.07;4.57;;;15.10;60.40;;;;;;4990142;28;20450;-78
2023/11/13 08:06:03;;;;;;;4.43;4.13;;;15.10;60.40;;;;;;4994026;28;20446;-79
2023/11/13 08:08:33;;;;;;;4.60;4.20;;;15.10;60.40;;;;;;4972845;28;20458;-78
2023/11/13 08:11:03;;;;;;;4.20;3.90;;;15.20;60.70;;;;;;4975673;28;20474;-78
2023/11/13 08:13:32;;;;;;;4.67;4.13;;;15.20;60.40;;;;;;4967178;28;20553;-78
2023/11/13 08:16:00;;;;;;;4.10;3.80;;;15.20;60.60;;;;;;4974115;28;20481;-78
2023/11/13 08:18:28;;;;;;;4.57;4.27;;;15.20;60.50;;;;;;4962244;28;20454;-78
2023/11/13 08:20:56;;;;;;;5.10;4.60;;;15.20;60.50;;;;;;4972005;28;20462;-77
2023/11/13 08:23:26;;;;;;;5.20;4.53;;;15.30;60.40;;;;;;4969431;28;20463;-77
2023/11/13 08:25:54;;;;;;;4.20;3.90;;;15.30;60.70;;;;;;4967796;28;20482;-78
2023/11/13 08:28:24;;;;;;;4.97;4.00;;;15.30;60.60;;;;;;4968117;28;20474;-77
2023/11/13 08:30:52;;;;;;;5.00;4.50;;;15.40;60.70;;;;;;4975032;28;20484;-78
2023/11/13 08:33:21;;;;;;;4.77;4.37;;;15.40;60.60;;;;;;4970685;28;20446;-77
2023/11/13 08:35:49;;;;;;;4.67;4.27;;;15.50;60.60;;;;;;4967539;28;20501;-77
2023/11/13 08:38:18;;;;;;;5.17;4.33;;;15.60;60.90;;;;;;4974357;28;20513;-78
2023/11/13 08:40:49;;;;;;;5.00;4.60;;;15.60;60.70;;;;;;4967810;28;20529;-78
2023/11/13 08:43:17;;;;;;;4.40;4.00;;;15.60;60.70;;;;;;4972686;28;20545;-77
2023/11/13 08:45:47;;;;;;;4.67;4.27;;;15.70;60.70;;;;;;4971576;28;20447;-78
2023/11/13 08:48:28;;;;;;;4.70;4.30;;;15.70;60.70;;;;;;4975559;28;20473;-79
2023/11/13 08:50:59;;;;;;;4.90;4.43;;;15.80;60.80;;;;;;4975840;28;20478;-79
2023/11/13 08:53:29;;;;;;;5.17;4.67;;;15.80;60.70;;;;;;4974939;28;20461;-78
2023/11/13 08:55:59;;;;;;;5.80;4.93;;;15.90;60.90;;;;;;4975067;28;20550;-78
2023/11/13 08:58:28;;;;;;;4.70;4.30;;;15.90;60.90;;;;;;4968809;28;20458;-78
2023/11/13 09:00:59;;;;;;;5.50;4.80;;;16.00;61.00;;;;;;4967844;28;20470;-78
2023/11/13 09:03:30;;;;;;;5.20;4.43;;;16.00;61.10;;;;;;4972375;28;20462;-78
2023/11/13 09:06:04;;;;;;;5.43;4.80;;;16.00;61.20;;;;;;4969855;28;20449;-79
2023/11/13 09:08:35;;;;;;;5.27;4.77;;;16.00;61.20;;;;;;4974352;28;20985;-78
2023/11/13 09:11:05;;;;;;;4.53;4.13;;;16.00;61.20;;;;;;4970393;28;20470;-80
2023/11/13 09:13:33;;;;;;;5.13;4.63;;;16.10;61.40;;;;;;4967406;28;20497;-79
2023/11/13 09:16:05;;;;;;;5.30;4.77;;;16.10;61.60;;;;;;4973144;28;20496;-78
2023/11/13 09:18:34;;;;;;;5.17;4.67;;;16.20;61.50;;;;;;4967437;28;20969;-78
2023/11/13 09:21:02;;;;;;;4.80;4.40;;;16.20;61.50;;;;;;4957540;28;20494;-77
2023/11/13 09:23:30;;;;;;;4.83;4.37;;;16.30;61.70;;;;;;4969752;28;20461;-78
2023/11/13 09:25:59;;;;;;;6.60;5.00;;;16.30;61.60;;;;;;4970248;28;20473;-78
2023/11/13 09:28:27;;;;;;;5.33;4.83;;;16.30;61.70;;;;;;4971540;28;20450;-78
2023/11/13 09:30:56;;;;;;;6.13;5.07;;;16.40;61.80;;;;;;5006054;23;20527;-80
2023/11/13 09:33:28;;;;;;;6.40;4.90;;;16.40;61.80;;;;;;5014836;28;20479;-79
2023/11/13 09:35:56;;;;;;;5.23;4.73;;;16.40;61.90;;;;;;5015295;28;20477;-79
2023/11/13 09:38:24;;;;;;;5.67;5.10;;;16.40;61.90;;;;;;5013151;28;20460;-78
2023/11/13 09:40:59;;;;;;;6.00;5.00;;;16.40;62.10;;;;;;4998134;28;20469;-78
2023/11/13 09:43:32;;;;;;;5.43;4.93;;;16.50;62.10;;;;;;4986253;28;20543;-79
2023/11/13 09:46:03;;;;;;;6.50;5.20;;;16.50;62.20;;;;;;4997572;28;20446;-80
2023/11/13 09:48:43;;;;;;;6.40;5.60;;;16.60;62.40;;;;;;4999857;28;21055;-79
2023/11/13 09:51:17;;;;;;;6.23;4.97;;;16.60;62.40;;;;;;4999666;28;20468;-79
2023/11/13 09:53:58;;;;;;;5.70;4.80;;;16.70;62.30;;;;;;4990290;28;20449;-82
2023/11/13 09:56:38;;;;;;;6.37;5.10;;;16.70;62.30;;;;;;4982790;28;20523;-80
2023/11/13 09:59:09;;;;;;;5.03;4.63;;;16.70;62.30;;;;;;4994693;28;20823;-78
2023/11/13 10:01:44;;;;;;;8.67;4.97;;;16.80;62.50;;;;;;4995490;28;20473;-79
2023/11/13 10:04:16;;;;;;;6.80;5.43;;;16.80;62.50;;;;;;5002224;28;20451;-79
2023/11/13 10:06:47;;;;;;;6.60;5.53;;;16.70;62.50;;;;;;4999338;28;20446;-80
2023/11/13 10:09:19;;;;;;;9.03;5.43;;;16.70;62.60;;;;;;4993097;28;20481;-78
2023/11/13 10:11:51;;;;;;;7.60;5.50;;;16.70;62.70;;;;;;4992867;28;20448;-79
2023/11/13 10:14:19;;;;;;;5.70;5.10;;;16.70;62.90;;;;;;4994732;28;20532;-78
2023/11/13 10:16:54;;;;;;;6.40;5.50;;;16.60;62.90;;;;;;4994890;28;20478;-77
2023/11/13 10:19:24;;;;;;;6.20;5.43;;;16.60;63.00;;;;;;4989865;28;20449;-80
2023/11/13 10:21:52;;;;;;;7.50;5.97;;;16.50;63.00;;;;;;4993963;28;20473;-80
2023/11/13 10:24:21;;;;;;;9.43;5.10;;;16.50;63.00;;;;;;4985993;28;20450;-79
2023/11/13 10:27:07;;;;;;;6.57;5.63;;;16.50;63.20;;;;;;4984710;28;20444;-79
2023/11/13 10:29:38;;;;;;;7.93;5.80;;;16.50;63.30;;;;;;4991935;28;20473;-81
2023/11/13 10:32:07;;;;;;;11.20;5.70;;;16.50;63.30;;;;;;4977775;28;20452;-78
2023/11/13 10:34:44;;;;;;;9.00;5.67;;;16.50;63.30;;;;;;4991237;28;20441;-79
2023/11/13 10:37:15;;;;;;;10.83;6.17;;;16.40;63.40;;;;;;4982525;28;21010;-79
2023/11/13 10:39:44;;;;;;;7.23;5.70;;;16.40;63.50;;;;;;5003253;28;20456;-79
2023/11/13 10:42:22;;;;;;;6.13;5.53;;;16.40;63.40;;;;;;4988585;28;20460;-79
2023/11/13 10:44:52;;;;;;;7.23;5.73;;;16.40;63.60;;;;;;4979506;28;20445;-80
2023/11/13 10:47:23;;;;;;;6.63;5.40;;;16.40;63.70;;;;;;4983383;28;20497;-78
2023/11/13 10:49:53;;;;;;;5.60;5.00;;;16.40;63.60;;;;;;4980935;28;20461;-77
2023/11/13 10:52:22;;;;;;;8.60;5.50;;;16.40;63.80;;;;;;4989331;28;20497;-76
2023/11/13 10:54:52;;;;;;;5.87;5.27;;;16.40;63.70;;;;;;5000281;28;20536;-78
2023/11/13 10:57:20;;;;;;;7.00;6.30;;;16.30;63.70;;;;;;4995212;28;20979;-76
2023/11/13 10:59:52;;;;;;;7.67;5.80;;;16.30;63.90;;;;;;4988451;28;20477;-78
2023/11/13 11:02:25;;;;;;;5.70;5.10;;;16.30;63.90;;;;;;4999687;28;20479;-77
2023/11/13 11:04:57;;;;;;;7.87;5.47;;;16.40;64.10;;;;;;4986057;28;20446;-76
2023/11/13 11:07:26;;;;;;;5.13;4.63;;;16.30;63.90;;;;;;4994434;28;20450;-77
2023/11/13 11:09:57;;;;;;;10.23;5.10;;;16.30;64.10;;;;;;4981554;28;20512;-77
2023/11/13 11:12:38;;;;;;;6.20;5.40;;;16.30;64.00;;;;;;4999921;28;20476;-76
2023/11/13 11:15:15;;;;;;;6.47;4.93;;;16.30;64.20;;;;;;4984621;28;20465;-78
2023/11/13 11:17:46;;;;;;;8.50;5.50;;;16.30;64.10;;;;;;4984297;28;20512;-78
2023/11/13 11:20:20;;;;;;;7.03;5.70;;;16.30;64.20;;;;;;4990427;28;20492;-77
2023/11/13 11:22:49;;;;;;;5.87;5.27;;;16.30;64.10;;;;;;4994662;28;20469;-78
2023/11/13 11:25:31;;;;;;;7.77;5.47;;;16.30;64.20;;;;;;4994557;28;20455;-78
2023/11/13 11:27:59;;;;;;;5.43;4.93;;;16.30;64.30;;;;;;4975313;28;20963;-77
2023/11/13 11:30:35;;;;;;;7.87;5.37;;;16.30;64.30;;;;;;4991243;28;20478;-76
2023/11/13 11:33:05;;;;;;;7.20;5.80;;;16.30;64.20;;;;;;4995748;28;20449;-77
2023/11/13 11:35:37;;;;;;;5.90;5.30;;;16.30;64.30;;;;;;4985864;28;20443;-77
2023/11/13 11:38:20;;;;;;;7.03;5.53;;;16.30;64.10;;;;;;4993501;28;20480;-78
2023/11/13 11:40:49;;;;;;;6.03;5.33;;;16.30;64.30;;;;;;5000986;28;20467;-79
2023/11/13 11:43:21;;;;;;;6.17;5.33;;;16.30;64.20;;;;;;4995512;28;20507;-77
2023/11/13 11:45:51;;;;;;;7.47;5.70;;;16.40;64.10;;;;;;4984114;28;20484;-78
2023/11/13 11:48:20;;;;;;;6.20;5.20;;;16.30;64.20;;;;;;4979846;28;20474;-78
2023/11/13 11:50:52;;;;;;;8.00;5.70;;;16.40;64.10;;;;;;4990438;28;20470;-78
2023/11/13 11:53:20;;;;;;;6.70;5.23;;;16.40;64.10;;;;;;4987296;28;20441;-79
2023/11/13 11:55:49;;;;;;;5.70;5.10;;;16.40;64.00;;;;;;5002809;28;20469;-81
2023/11/13 11:58:18;;;;;;;5.53;4.97;;;16.40;63.90;;;;;;4987306;28;20457;-80
2023/11/13 12:00:48;;;;;;;7.87;5.57;;;16.40;63.80;;;;;;4977259;28;20552;-78
2023/11/13 12:03:16;;;;;;;7.00;5.90;;;16.40;63.80;;;;;;4986596;28;20853;-78
2023/11/13 12:05:45;;;;;;;6.50;5.60;;;16.50;63.80;;;;;;4989791;28;20456;-78
2023/11/13 12:08:15;;;;;;;13.37;5.80;;;16.50;63.80;;;;;;4986173;28;20450;-78
2023/11/13 12:10:44;;;;;;;7.30;6.03;;;16.50;63.80;;;;;;4982371;28;20493;-77
2023/11/13 12:13:12;;;;;;;7.10;5.90;;;16.50;63.60;;;;;;4989033;28;20484;-78
2023/11/13 12:15:42;;;;;;;8.00;6.30;;;16.40;63.50;;;;;;4990483;28;20497;-77
2023/11/13 12:18:13;;;;;;;7.50;6.00;;;16.40;63.50;;;;;;4989947;28;20975;-76
2023/11/13 12:20:41;;;;;;;7.03;6.10;;;16.40;63.70;;;;;;4989860;28;20496;-79
2023/11/13 12:23:15;;;;;;;7.00;5.70;;;16.40;63.60;;;;;;4987902;28;20488;-77
2023/11/13 12:25:43;;;;;;;7.27;6.10;;;16.40;63.60;;;;;;4987882;28;20461;-79
2023/11/13 12:28:12;;;;;;;7.60;6.30;;;16.40;63.50;;;;;;4990260;28;20473;-77
2023/11/13 12:30:41;;;;;;;6.73;5.27;;;16.40;63.70;;;;;;4978558;28;20481;-77
2023/11/13 12:33:09;;;;;;;6.60;5.37;;;16.40;63.60;;;;;;4991844;28;20441;-76
2023/11/13 12:35:38;;;;;;;6.77;6.07;;;16.40;63.80;;;;;;4992927;28;20445;-79
2023/11/13 12:38:07;;;;;;;7.80;5.50;;;16.40;63.80;;;;;;4980598;28;20552;-77
2023/11/13 12:40:36;;;;;;;6.93;5.70;;;16.40;63.90;;;;;;4987138;28;20520;-77
2023/11/13 12:43:05;;;;;;;5.23;4.73;;;16.40;64.00;;;;;;4989949;28;20457;-79
2023/11/13 12:45:33;;;;;;;7.33;5.50;;;16.50;64.00;;;;;;4986276;28;20456;-77
2023/11/13 12:48:06;;;;;;;6.13;5.53;;;16.50;64.30;;;;;;4987980;28;20476;-78
2023/11/13 12:50:39;;;;;;;8.07;5.30;;;16.50;64.20;;;;;;4985582;28;20467;-76
2023/11/13 12:53:11;;;;;;;6.07;4.83;;;16.50;64.20;;;;;;4979951;28;20533;-80
2023/11/13 12:55:42;;;;;;;7.37;6.13;;;16.50;64.10;;;;;;4989675;28;20429;-77